createdAt,value
2023-05-10T00:00:36.951Z,100522.25
2023-05-10T00:03:40.301Z,100526.00
2023-05-10T00:06:43.710Z,100518.75
2023-05-10T00:09:47.120Z,100521.22
2023-05-10T00:12:50.240Z,100522.03
2023-05-10T00:15:53.133Z,100512.03
2023-05-10T00:18:56.488Z,100515.25
2023-05-10T00:22:02.585Z,100516.59
2023-05-10T00:25:06.510Z,100508.97
2023-05-10T00:28:09.823Z,100511.34
2023-05-10T00:31:15.797Z,100512.47
2023-05-10T00:34:18.783Z,100515.88
2023-05-10T00:37:21.921Z,100508.00
2023-05-10T00:40:26.003Z,100501.16
2023-05-10T00:43:33.744Z,100504.78
2023-05-10T00:46:38.537Z,100508.13
2023-05-10T00:49:42.877Z,100510.38
2023-05-10T00:52:45.990Z,100510.69
2023-05-10T00:55:49.465Z,100508.47
2023-05-10T00:58:53.017Z,100503.44
2023-05-10T01:01:56.218Z,100510.44
2023-05-10T01:05:00.303Z,100510.56
2023-05-10T01:08:03.981Z,100502.47
2023-05-10T01:11:08.183Z,100504.50
2023-05-10T01:14:11.863Z,100509.66
2023-05-10T01:17:15.682Z,100509.31
2023-05-10T01:20:19.472Z,100511.47
2023-05-10T01:23:38.257Z,100504.19
2023-05-10T01:26:41.491Z,100502.81
2023-05-10T01:30:14.929Z,100505.66
2023-05-10T01:33:31.460Z,100497.47
2023-05-10T01:36:59.819Z,100497.69
2023-05-10T01:40:27.259Z,100494.19
2023-05-10T01:43:38.337Z,100491.75
2023-05-10T01:46:42.032Z,100487.25
2023-05-10T01:49:50.809Z,100487.84
2023-05-10T01:52:59.994Z,100487.91
2023-05-10T01:56:03.994Z,100487.91
2023-05-10T01:59:12.670Z,100478.69
2023-05-10T02:02:17.947Z,100478.16
2023-05-10T02:05:22.851Z,100478.66
2023-05-10T02:08:26.735Z,100477.06
2023-05-10T02:11:30.902Z,100474.88
2023-05-10T02:14:37.458Z,100473.13
2023-05-10T02:17:43.319Z,100470.09
2023-05-10T02:20:47.931Z,100471.88
2023-05-10T02:23:53.709Z,100462.50
2023-05-10T02:26:58.335Z,100471.41
2023-05-10T02:30:02.534Z,100467.66
2023-05-10T02:33:07.478Z,100461.88
2023-05-10T02:36:11.724Z,100462.34
2023-05-10T02:39:16.775Z,100479.03
2023-05-10T02:42:26.924Z,100475.88
2023-05-10T02:45:32.417Z,100476.47
2023-05-10T02:48:35.524Z,100473.13
2023-05-10T02:51:51.189Z,100475.88
2023-05-10T02:54:59.578Z,100474.97
2023-05-10T02:58:03.816Z,100479.66
2023-05-10T03:01:08.767Z,100479.91
2023-05-10T03:04:13.345Z,100476.84
2023-05-10T03:07:18.026Z,100482.00
2023-05-10T03:10:25.591Z,100481.09
2023-05-10T03:13:36.525Z,100481.09
2023-05-10T03:16:58.431Z,100487.13
2023-05-10T03:20:08.598Z,100487.13
2023-05-10T03:23:31.409Z,100482.56
2023-05-10T03:26:36.188Z,100486.44
2023-05-10T03:29:47.692Z,100487.94
2023-05-10T03:32:51.787Z,100482.13
2023-05-10T03:35:55.376Z,100482.28
2023-05-10T03:38:58.501Z,100485.78
2023-05-10T03:42:01.914Z,100483.50
2023-05-10T03:45:08.326Z,100494.69
2023-05-10T03:48:11.683Z,100477.72
2023-05-10T03:51:14.823Z,100486.53
2023-05-10T03:54:18.175Z,100491.13
2023-05-10T03:57:21.471Z,100494.38
2023-05-10T04:00:25.105Z,100484.94
2023-05-10T04:03:31.092Z,100492.03
2023-05-10T04:06:34.905Z,100486.88
2023-05-10T04:09:38.148Z,100489.00
2023-05-10T04:12:41.455Z,100491.31
2023-05-10T04:15:44.958Z,100492.47
2023-05-10T04:18:48.194Z,100501.69
2023-05-10T04:21:51.143Z,100504.00
2023-05-10T04:24:54.217Z,100502.88
2023-05-10T04:27:57.217Z,100507.81
2023-05-10T04:31:11.528Z,100500.63
2023-05-10T04:34:14.482Z,100509.00
2023-05-10T04:37:18.190Z,100501.75
2023-05-10T04:40:21.632Z,100505.19
2023-05-10T04:43:24.710Z,100512.81
2023-05-10T04:46:27.916Z,100517.63
2023-05-10T04:49:31.419Z,100517.91
2023-05-10T04:52:34.810Z,100515.22
2023-05-10T04:55:38.137Z,100517.50
2023-05-10T04:58:41.615Z,100518.16
2023-05-10T05:01:45.089Z,100526.06
2023-05-10T05:04:48.433Z,100518.34
2023-05-10T05:07:51.959Z,100522.50
2023-05-10T05:10:57.972Z,100530.31
2023-05-10T05:14:00.884Z,100526.78
2023-05-10T05:17:03.872Z,100521.69
2023-05-10T05:20:07.281Z,100520.25
2023-05-10T05:23:10.485Z,100517.84
2023-05-10T05:26:13.665Z,100514.56
2023-05-10T05:29:16.831Z,100520.03
2023-05-10T05:32:19.776Z,100529.22
2023-05-10T05:35:22.769Z,100529.81
2023-05-10T05:38:25.654Z,100531.59
2023-05-10T05:41:28.665Z,100537.78
2023-05-10T05:44:32.183Z,100530.84
2023-05-10T05:47:35.789Z,100528.31
2023-05-10T05:50:39.005Z,100528.81
2023-05-10T05:53:42.237Z,100530.84
2023-05-10T05:56:45.645Z,100533.59
2023-05-10T05:59:48.765Z,100535.63
2023-05-10T06:02:51.999Z,100533.69
2023-05-10T06:05:55.190Z,100537.22
2023-05-10T06:08:58.609Z,100537.00
2023-05-10T06:12:01.731Z,100539.59
2023-05-10T06:15:06.113Z,100539.63
2023-05-10T06:18:09.619Z,100546.06
2023-05-10T06:21:13.093Z,100544.31
2023-05-10T06:24:16.237Z,100552.09
2023-05-10T06:27:19.575Z,100548.63
2023-05-10T06:30:24.329Z,100550.13
2023-05-10T06:33:30.201Z,100545.06
2023-05-10T06:36:33.683Z,100543.75
2023-05-10T06:39:36.939Z,100530.19
2023-05-10T06:42:40.149Z,100534.78
2023-05-10T06:45:49.522Z,100525.25
2023-05-10T06:48:53.652Z,100526.47
2023-05-10T06:51:57.973Z,100530.28
2023-05-10T06:55:21.248Z,100526.31
2023-05-10T06:58:24.578Z,100513.97
2023-05-10T07:01:27.693Z,100517.69
2023-05-10T07:04:30.679Z,100516.69
2023-05-10T07:07:33.819Z,100518.69
2023-05-10T07:10:37.004Z,100517.41
2023-05-10T07:13:42.400Z,100521.44
2023-05-10T07:16:45.837Z,100517.78
2023-05-10T07:19:49.524Z,100516.28
2023-05-10T07:22:52.426Z,100517.91
2023-05-10T07:25:55.664Z,100520.44
2023-05-10T07:29:00.651Z,100519.19
2023-05-10T07:32:04.176Z,100519.63
2023-05-10T07:35:08.002Z,100522.09
2023-05-10T07:38:12.296Z,100514.34
2023-05-10T07:41:15.633Z,100511.53
2023-05-10T07:44:21.802Z,100508.94
2023-05-10T07:47:24.949Z,100516.56
2023-05-10T07:50:28.448Z,100519.03
2023-05-10T07:53:31.850Z,100524.78
2023-05-10T07:56:35.732Z,100515.63
2023-05-10T07:59:38.914Z,100520.47
2023-05-10T08:02:42.744Z,100524.53
2023-05-10T08:05:46.090Z,100528.38
2023-05-10T08:08:51.441Z,100526.09
2023-05-10T08:11:54.769Z,100528.94
2023-05-10T08:14:58.203Z,100523.84
2023-05-10T08:18:02.854Z,100525.50
2023-05-10T08:21:06.180Z,100520.50
2023-05-10T08:24:09.210Z,100521.03
2023-05-10T08:27:12.535Z,100517.91
2023-05-10T08:30:15.842Z,100519.19
2023-05-10T08:33:20.332Z,100509.69
2023-05-10T08:36:25.493Z,100510.88
2023-05-10T08:39:30.640Z,100513.72
2023-05-10T08:42:38.995Z,100506.66
2023-05-10T08:45:48.916Z,100514.81
2023-05-10T08:48:53.345Z,100509.50
2023-05-10T08:51:57.679Z,100515.88
2023-05-10T08:55:00.894Z,100516.56
2023-05-10T08:58:05.179Z,100508.59
2023-05-10T09:01:09.957Z,100504.25
2023-05-10T09:04:13.841Z,100506.63
2023-05-10T09:07:17.715Z,100510.22
2023-05-10T09:10:21.761Z,100503.97
2023-05-10T09:13:26.024Z,100497.56
2023-05-10T09:16:29.172Z,100499.53
2023-05-10T09:19:32.203Z,100489.63
2023-05-10T09:22:36.196Z,100490.09
2023-05-10T09:25:40.204Z,100486.72
2023-05-10T09:28:57.260Z,100484.13
2023-05-10T09:32:01.869Z,100482.47
2023-05-10T09:35:12.604Z,100482.47
2023-05-10T09:38:15.514Z,100480.00
2023-05-10T09:41:26.096Z,100482.44
2023-05-10T09:44:29.356Z,100481.22
2023-05-10T09:47:37.160Z,100471.13
2023-05-10T09:50:40.218Z,100467.00
2023-05-10T09:53:43.738Z,100473.88
2023-05-10T09:56:46.642Z,100470.69
2023-05-10T09:59:50.358Z,100458.78
2023-05-10T10:02:58.334Z,100473.44
2023-05-10T10:06:02.000Z,100463.34
2023-05-10T10:09:07.431Z,100458.16
2023-05-10T10:12:10.611Z,100467.81
2023-05-10T10:15:16.607Z,100463.53
2023-05-10T10:18:24.768Z,100474.03
2023-05-10T10:21:29.553Z,100465.03
2023-05-10T10:24:33.054Z,100456.78
2023-05-10T10:27:54.610Z,100461.69
2023-05-10T10:31:03.577Z,100445.41
2023-05-10T10:34:09.098Z,100447.25
2023-05-10T10:37:12.688Z,100440.06
2023-05-10T10:40:26.012Z,100449.25
2023-05-10T10:43:30.533Z,100454.28
2023-05-10T10:46:35.594Z,100435.81
2023-05-10T10:49:44.791Z,100438.63
2023-05-10T10:52:50.609Z,100442.78
2023-05-10T10:56:07.591Z,100433.34
2023-05-10T10:59:13.332Z,100424.31
2023-05-10T11:02:46.945Z,100425.13
2023-05-10T11:05:52.379Z,100427.63
2023-05-10T11:08:56.160Z,100419.75
2023-05-10T11:12:01.430Z,100413.97
2023-05-10T11:15:05.113Z,100421.09
2023-05-10T11:18:22.593Z,100409.59
2023-05-10T11:21:25.909Z,100413.25
2023-05-10T11:24:29.593Z,100414.16
2023-05-10T11:27:34.353Z,100408.56
2023-05-10T11:30:40.641Z,100402.94
2023-05-10T11:33:48.359Z,100405.81
2023-05-10T11:36:56.458Z,100405.84
2023-05-10T11:39:59.748Z,100391.88
2023-05-10T11:43:03.820Z,100399.03
2023-05-10T11:46:13.231Z,100391.72
2023-05-10T11:49:16.824Z,100395.41
2023-05-10T11:52:20.318Z,100385.09
2023-05-10T11:55:25.425Z,100375.53
2023-05-10T11:58:28.770Z,100380.75
2023-05-10T12:01:32.693Z,100385.03
2023-05-10T12:04:36.598Z,100372.88
2023-05-10T12:07:40.056Z,100369.34
2023-05-10T12:10:43.802Z,100368.41
2023-05-10T12:13:51.150Z,100357.56
2023-05-10T12:16:54.433Z,100356.94
2023-05-10T12:20:15.276Z,100361.41
2023-05-10T12:23:19.040Z,100361.31
2023-05-10T12:26:27.617Z,100361.16
2023-05-10T12:29:32.159Z,100359.72
2023-05-10T12:32:48.138Z,100358.34
2023-05-10T12:35:54.750Z,100362.41
2023-05-10T12:39:04.438Z,100354.47
2023-05-10T12:42:08.526Z,100360.72
2023-05-10T12:45:12.880Z,100354.03
2023-05-10T12:48:19.107Z,100343.53
2023-05-10T12:51:26.509Z,100342.81
2023-05-10T12:54:30.361Z,100339.09
2023-05-10T12:57:34.329Z,100343.84
2023-05-10T13:00:39.092Z,100326.91
2023-05-10T13:03:42.250Z,100327.50
2023-05-10T13:06:45.524Z,100328.16
2023-05-10T13:09:48.910Z,100323.75
2023-05-10T13:12:52.952Z,100322.25
2023-05-10T13:15:56.345Z,100322.44
2023-05-10T13:19:00.131Z,100317.47
2023-05-10T13:22:07.213Z,100311.03
2023-05-10T13:25:10.865Z,100308.75
2023-05-10T13:28:14.398Z,100303.19
2023-05-10T13:31:17.982Z,100297.22
2023-05-10T13:34:21.971Z,100304.75
2023-05-10T13:37:25.315Z,100307.47
2023-05-10T13:40:29.217Z,100305.97
2023-05-10T13:43:32.465Z,100306.66
2023-05-10T13:46:36.042Z,100309.25
2023-05-10T13:49:39.600Z,100297.59
2023-05-10T13:52:43.233Z,100301.16
2023-05-10T13:55:46.572Z,100296.19
2023-05-10T13:58:49.873Z,100287.53
2023-05-10T14:01:53.025Z,100277.38
2023-05-10T14:04:56.141Z,100283.53
2023-05-10T14:07:59.162Z,100280.91
2023-05-10T14:11:03.781Z,100279.25
2023-05-10T14:14:06.723Z,100274.59
2023-05-10T14:17:12.527Z,100275.16
2023-05-10T14:20:16.260Z,100279.75
2023-05-10T14:23:21.367Z,100264.63
2023-05-10T14:26:24.473Z,100263.75
2023-05-10T14:29:27.514Z,100273.66
2023-05-10T14:32:30.515Z,100265.75
2023-05-10T14:35:33.975Z,100268.94
2023-05-10T14:38:37.207Z,100259.28
2023-05-10T14:41:45.518Z,100264.31
2023-05-10T14:44:48.618Z,100264.63
2023-05-10T14:47:51.937Z,100260.69
2023-05-10T14:50:55.401Z,100265.72
2023-05-10T14:53:58.244Z,100255.16
2023-05-10T14:57:01.734Z,100254.19
2023-05-10T15:00:05.341Z,100261.94
2023-05-10T15:03:09.135Z,100257.66
2023-05-10T15:06:12.925Z,100265.91
2023-05-10T15:09:17.391Z,100260.59
2023-05-10T15:12:20.757Z,100255.91
2023-05-10T15:15:23.990Z,100265.31
2023-05-10T15:18:27.400Z,100256.91
2023-05-10T15:21:36.306Z,100262.41
2023-05-10T15:24:39.698Z,100257.84
2023-05-10T15:27:44.746Z,100258.47
2023-05-10T15:30:48.059Z,100257.69
2023-05-10T15:33:51.231Z,100259.19
2023-05-10T15:36:54.366Z,100255.50
2023-05-10T15:40:04.304Z,100254.88
2023-05-10T15:43:08.920Z,100249.06
2023-05-10T15:46:12.298Z,100253.81
2023-05-10T15:49:15.846Z,100250.41
2023-05-10T15:52:19.401Z,100250.88
2023-05-10T15:55:22.497Z,100252.75
2023-05-10T15:58:25.817Z,100243.63
2023-05-10T16:01:29.593Z,100242.56
2023-05-10T16:04:35.932Z,100244.94
2023-05-10T16:07:40.448Z,100249.19
2023-05-10T16:10:43.711Z,100248.16
2023-05-10T16:13:46.952Z,100250.59
2023-05-10T16:16:50.220Z,100249.53
2023-05-10T16:19:53.389Z,100248.66
2023-05-10T16:22:56.982Z,100248.22
2023-05-10T16:26:03.472Z,100253.72
2023-05-10T16:29:10.666Z,100249.44
2023-05-10T16:32:14.113Z,100248.22
2023-05-10T16:35:17.420Z,100246.69
2023-05-10T16:38:22.019Z,100248.84
2023-05-10T16:41:25.247Z,100262.78
2023-05-10T16:44:28.946Z,100264.75
2023-05-10T16:47:32.174Z,100259.25
2023-05-10T16:50:35.309Z,100257.28
2023-05-10T16:53:38.868Z,100260.03
2023-05-10T16:56:42.475Z,100257.44
2023-05-10T16:59:45.686Z,100263.88
2023-05-10T17:02:49.351Z,100265.28
2023-05-10T17:05:52.385Z,100272.00
2023-05-10T17:08:55.714Z,100272.16
2023-05-10T17:11:58.777Z,100271.44
2023-05-10T17:15:02.335Z,100267.00
2023-05-10T17:18:07.225Z,100270.22
2023-05-10T17:21:10.821Z,100270.69
2023-05-10T17:24:14.463Z,100276.81
2023-05-10T17:27:18.107Z,100278.06
2023-05-10T17:30:28.311Z,100283.25
2023-05-10T17:33:31.408Z,100285.88
2023-05-10T17:36:34.780Z,100278.09
2023-05-10T17:39:39.920Z,100279.28
2023-05-10T17:42:43.266Z,100281.28
2023-05-10T17:45:48.329Z,100271.84
2023-05-10T17:48:51.378Z,100281.47
2023-05-10T17:51:54.440Z,100280.25
2023-05-10T17:54:58.076Z,100292.16
2023-05-10T17:58:01.091Z,100292.19
2023-05-10T18:01:04.960Z,100291.88
2023-05-10T18:04:08.688Z,100293.41
2023-05-10T18:07:11.887Z,100295.88
2023-05-10T18:10:15.159Z,100293.91
2023-05-10T18:13:18.275Z,100296.16
2023-05-10T18:16:21.513Z,100294.78
2023-05-10T18:19:27.771Z,100292.22
2023-05-10T18:22:31.102Z,100297.69
2023-05-10T18:25:34.594Z,100300.44
2023-05-10T18:28:37.818Z,100305.31
2023-05-10T18:31:41.469Z,100312.19
2023-05-10T18:34:44.831Z,100309.75
2023-05-10T18:37:48.936Z,100316.94
2023-05-10T18:40:52.531Z,100317.22
2023-05-10T18:43:56.246Z,100322.22
2023-05-10T18:47:00.707Z,100319.94
2023-05-10T18:50:07.753Z,100323.91
2023-05-10T18:53:11.347Z,100326.47
2023-05-10T18:56:14.360Z,100330.59
2023-05-10T18:59:17.392Z,100333.66
2023-05-10T19:02:21.044Z,100334.69
2023-05-10T19:05:30.044Z,100332.97
2023-05-10T19:08:33.196Z,100338.47
2023-05-10T19:11:36.458Z,100336.34
2023-05-10T19:14:39.559Z,100341.06
2023-05-10T19:17:45.705Z,100355.53
2023-05-10T19:20:49.643Z,100356.38
2023-05-10T19:23:53.772Z,100348.22
2023-05-10T19:26:58.437Z,100354.91
2023-05-10T19:30:01.756Z,100359.81
2023-05-10T19:33:06.541Z,100353.28
2023-05-10T19:36:09.954Z,100364.25
2023-05-10T19:39:13.415Z,100363.16
2023-05-10T19:42:18.212Z,100362.53
2023-05-10T19:45:21.910Z,100354.59
2023-05-10T19:48:25.581Z,100359.72
2023-05-10T19:51:29.115Z,100362.13
2023-05-10T19:54:32.833Z,100357.56
2023-05-10T19:57:36.366Z,100365.13
2023-05-10T20:00:39.947Z,100369.25
2023-05-10T20:03:42.905Z,100365.13
2023-05-10T20:06:46.615Z,100371.22
2023-05-10T20:09:49.953Z,100370.72
2023-05-10T20:12:53.286Z,100364.91
2023-05-10T20:15:58.383Z,100372.78
2023-05-10T20:19:01.929Z,100379.16
2023-05-10T20:22:05.583Z,100375.78
2023-05-10T20:25:09.546Z,100372.72
2023-05-10T20:28:13.464Z,100369.81
2023-05-10T20:31:17.661Z,100374.06
2023-05-10T20:34:21.141Z,100372.09
2023-05-10T20:37:24.474Z,100375.59
2023-05-10T20:40:28.318Z,100378.81
2023-05-10T20:43:32.070Z,100381.09
2023-05-10T20:46:36.119Z,100381.84
2023-05-10T20:49:39.354Z,100380.59
2023-05-10T20:52:42.893Z,100374.66
2023-05-10T20:55:45.988Z,100367.38
2023-05-10T20:58:49.003Z,100381.09
2023-05-10T21:01:52.356Z,100377.25
2023-05-10T21:04:57.740Z,100371.78
2023-05-10T21:08:01.107Z,100369.47
2023-05-10T21:11:07.526Z,100371.47
2023-05-10T21:14:13.827Z,100374.22
2023-05-10T21:17:18.149Z,100380.81
2023-05-10T21:20:23.729Z,100381.59
2023-05-10T21:23:26.974Z,100377.00
2023-05-10T21:26:30.779Z,100382.91
2023-05-10T21:29:33.844Z,100383.59
2023-05-10T21:32:37.120Z,100378.53
2023-05-10T21:35:42.981Z,100387.97
2023-05-10T21:38:46.979Z,100382.16
2023-05-10T21:41:50.133Z,100381.84
2023-05-10T21:44:53.944Z,100385.91
2023-05-10T21:47:57.163Z,100386.03
2023-05-10T21:51:00.942Z,100386.84
2023-05-10T21:54:04.015Z,100392.06
2023-05-10T21:57:07.261Z,100393.84
2023-05-10T22:00:11.127Z,100386.94
2023-05-10T22:03:15.727Z,100390.13
2023-05-10T22:06:18.860Z,100387.94
2023-05-10T22:09:24.500Z,100385.25
2023-05-10T22:12:27.987Z,100385.88
2023-05-10T22:15:34.120Z,100384.59
2023-05-10T22:18:38.864Z,100381.75
2023-05-10T22:21:42.181Z,100393.75
2023-05-10T22:24:45.887Z,100386.88
2023-05-10T22:27:49.253Z,100390.28
2023-05-10T22:30:52.420Z,100389.63
2023-05-10T22:33:55.854Z,100379.69
2023-05-10T22:36:59.842Z,100390.72
2023-05-10T22:40:03.930Z,100387.22
2023-05-10T22:43:07.123Z,100391.59
2023-05-10T22:46:10.766Z,100378.91
2023-05-10T22:49:14.088Z,100392.06
2023-05-10T22:52:19.639Z,100376.94
2023-05-10T22:55:25.594Z,100382.22
2023-05-10T22:58:28.673Z,100386.38
2023-05-10T23:01:31.741Z,100387.44
2023-05-10T23:04:35.178Z,100384.06
2023-05-10T23:07:38.210Z,100377.63
2023-05-10T23:10:41.230Z,100385.16
2023-05-10T23:13:44.816Z,100385.25
2023-05-10T23:16:47.798Z,100378.06
2023-05-10T23:19:50.753Z,100384.81
2023-05-10T23:22:54.101Z,100385.38
2023-05-10T23:25:57.365Z,100379.47
2023-05-10T23:29:01.805Z,100380.31
2023-05-10T23:32:05.103Z,100384.06
2023-05-10T23:35:08.999Z,100391.47
2023-05-10T23:38:12.372Z,100388.03
2023-05-10T23:41:15.314Z,100388.47
2023-05-10T23:44:20.361Z,100388.00
2023-05-10T23:47:23.318Z,100395.16
2023-05-10T23:50:26.434Z,100390.97
2023-05-10T23:53:29.438Z,100400.03
2023-05-10T23:56:32.449Z,100395.16
2023-05-10T23:59:36.154Z,100390.13
